Terminal Aerodrome Forecast
Issued by NWS

Home | Current Version | Previous Version | Text Only | Print | Product List | Glossary On
Versions: 1 2 3 4 5 6 7 8 9 10 11 12 13 14 15 16 17 18 19 20 21
103
FTUS43 KJKL 261720
TAFSME
TAF
KSME 261720Z 2618/2718 VRB03KT P6SM SCT050 SCT250
     FM270900 VRB03KT P6SM VCTS SCT040CB BKN250
     FM271400 25006KT P6SM VCTS SCT040CB BKN250=

USA.gov is the U.S. government's official web portal to all federal, state and local government web resources and services.